Picos, Brazil
Current Conditions -  °F | °C
As of 1:00 PM on Thursday 29 Jan 2015 (Local Time) from SBJU Reporting Station
Scattered Clouds Scattered Clouds  
Wind Chill: 93°   Ceiling: Unl
Heat Index: 96°   Visibility: 6mi
Dew Point: 66°   Wind: 6mph
Humidity: 41%   Direction: 180°S
Pressure: 29.94"   Gusts: NA
Location:  7.57°S, 38.28°W
Report Text: SBJU 291600Z 18005KT 9999 SCT023 34/19 Q1014
Loading
Personal Weather Stations






























Interactive Weather Map New forecast layout! Learn more

10-Day Weather Forecast

Advertisements
Track Severe Weather on mobile